sensor_id;sensor_type;location;lat;lon;timestamp;temperature;humidity
43665;DHT22;29263;48.172;11.484;2022-08-05T00:01:18;21.20;99.90
43665;DHT22;29263;48.172;11.484;2022-08-05T00:03:48;21.20;99.90
43665;DHT22;29263;48.172;11.484;2022-08-05T00:06:14;21.20;99.90
43665;DHT22;29263;48.172;11.484;2022-08-05T00:08:41;21.20;99.90
43665;DHT22;29263;48.172;11.484;2022-08-05T00:11:12;21.10;99.90
43665;DHT22;29263;48.172;11.484;2022-08-05T00:13:39;21.10;99.90
43665;DHT22;29263;48.172;11.484;2022-08-05T00:16:08;21.10;99.90
43665;DHT22;29263;48.172;11.484;2022-08-05T00:18:35;21.00;99.90
43665;DHT22;29263;48.172;11.484;2022-08-05T00:21:01;20.90;99.90
43665;DHT22;29263;48.172;11.484;2022-08-05T00:23:27;20.90;99.90
43665;DHT22;29263;48.172;11.484;2022-08-05T00:25:52;20.80;99.90
43665;DHT22;29263;48.172;11.484;2022-08-05T00:28:18;20.70;99.90
43665;DHT22;29263;48.172;11.484;2022-08-05T00:30:44;20.60;99.90
43665;DHT22;29263;48.172;11.484;2022-08-05T00:33:09;20.60;99.90
43665;DHT22;29263;48.172;11.484;2022-08-05T00:35:35;20.50;99.90
43665;DHT22;29263;48.172;11.484;2022-08-05T00:38:01;20.50;99.90
43665;DHT22;29263;48.172;11.484;2022-08-05T00:40:27;20.50;99.90
43665;DHT22;29263;48.172;11.484;2022-08-05T00:42:55;20.50;99.90
43665;DHT22;29263;48.172;11.484;2022-08-05T00:45:21;20.40;99.90
43665;DHT22;29263;48.172;11.484;2022-08-05T00:47:47;20.50;99.90
43665;DHT22;29263;48.172;11.484;2022-08-05T00:50:13;20.40;99.90
43665;DHT22;29263;48.172;11.484;2022-08-05T00:52:38;20.40;99.90
43665;DHT22;29263;48.172;11.484;2022-08-05T00:55:04;20.40;99.90
43665;DHT22;29263;48.172;11.484;2022-08-05T00:57:30;20.40;99.90
43665;DHT22;29263;48.172;11.484;2022-08-05T00:59:55;20.30;99.90
43665;DHT22;29263;48.172;11.484;2022-08-05T01:02:21;20.30;99.90
43665;DHT22;29263;48.172;11.484;2022-08-05T01:04:47;20.20;99.90
43665;DHT22;29263;48.172;11.484;2022-08-05T01:07:12;20.20;99.90
43665;DHT22;29263;48.172;11.484;2022-08-05T01:09:38;20.20;99.90
43665;DHT22;29263;48.172;11.484;2022-08-05T01:12:09;20.20;99.90
43665;DHT22;29263;48.172;11.484;2022-08-05T01:22:39;20.10;99.90
43665;DHT22;29263;48.172;11.484;2022-08-05T01:33:42;20.00;99.90
43665;DHT22;29263;48.172;11.484;2022-08-05T01:36:15;19.90;99.90
43665;DHT22;29263;48.172;11.484;2022-08-05T01:38:42;19.90;99.90
43665;DHT22;29263;48.172;11.484;2022-08-05T01:41:09;19.90;99.90
43665;DHT22;29263;48.172;11.484;2022-08-05T01:43:36;19.90;99.90
43665;DHT22;29263;48.172;11.484;2022-08-05T01:46:03;19.90;99.90
43665;DHT22;29263;48.172;11.484;2022-08-05T01:48:30;19.90;99.90
43665;DHT22;29263;48.172;11.484;2022-08-05T01:51:00;19.80;99.90
43665;DHT22;29263;48.172;11.484;2022-08-05T01:53:27;19.80;99.90
43665;DHT22;29263;48.172;11.484;2022-08-05T01:55:57;19.80;99.90
43665;DHT22;29263;48.172;11.484;2022-08-05T01:58:26;19.90;99.90
43665;DHT22;29263;48.172;11.484;2022-08-05T02:00:53;19.80;99.90
43665;DHT22;29263;48.172;11.484;2022-08-05T02:03:31;19.80;99.90
43665;DHT22;29263;48.172;11.484;2022-08-05T02:06:03;19.80;99.90
43665;DHT22;29263;48.172;11.484;2022-08-05T02:08:33;19.70;99.90
43665;DHT22;29263;48.172;11.484;2022-08-05T02:11:10;19.70;99.90
43665;DHT22;29263;48.172;11.484;2022-08-05T02:13:37;19.60;99.90
43665;DHT22;29263;48.172;11.484;2022-08-05T02:16:24;19.70;99.90
43665;DHT22;29263;48.172;11.484;2022-08-05T02:22:01;19.60;99.90
43665;DHT22;29263;48.172;11.484;2022-08-05T02:24:38;19.60;99.90
43665;DHT22;29263;48.172;11.484;2022-08-05T02:27:07;19.50;99.90
43665;DHT22;29263;48.172;11.484;2022-08-05T02:29:36;19.50;99.90
43665;DHT22;29263;48.172;11.484;2022-08-05T02:32:05;19.50;99.90
43665;DHT22;29263;48.172;11.484;2022-08-05T02:34:34;19.50;99.90
43665;DHT22;29263;48.172;11.484;2022-08-05T02:37:02;19.50;99.90
43665;DHT22;29263;48.172;11.484;2022-08-05T02:39:31;19.50;99.90
43665;DHT22;29263;48.172;11.484;2022-08-05T02:42:00;19.50;99.90
43665;DHT22;29263;48.172;11.484;2022-08-05T02:44:28;19.40;99.90
43665;DHT22;29263;48.172;11.484;2022-08-05T02:46:56;19.40;99.90
43665;DHT22;29263;48.172;11.484;2022-08-05T02:49:24;19.30;99.90
43665;DHT22;29263;48.172;11.484;2022-08-05T02:54:20;19.30;99.90
43665;DHT22;29263;48.172;11.484;2022-08-05T02:56:47;19.30;99.90
43665;DHT22;29263;48.172;11.484;2022-08-05T02:59:14;19.30;99.90
43665;DHT22;29263;48.172;11.484;2022-08-05T03:01:42;19.30;99.90
43665;DHT22;29263;48.172;11.484;2022-08-05T03:04:11;19.20;99.90
43665;DHT22;29263;48.172;11.484;2022-08-05T03:06:40;19.20;99.90
43665;DHT22;29263;48.172;11.484;2022-08-05T03:09:06;19.20;99.90
43665;DHT22;29263;48.172;11.484;2022-08-05T03:14:35;19.20;99.90
43665;DHT22;29263;48.172;11.484;2022-08-05T03:17:01;19.20;99.90
43665;DHT22;29263;48.172;11.484;2022-08-05T03:19:27;19.30;99.90
43665;DHT22;29263;48.172;11.484;2022-08-05T03:21:52;19.20;99.90
43665;DHT22;29263;48.172;11.484;2022-08-05T03:24:19;19.10;99.90
43665;DHT22;29263;48.172;11.484;2022-08-05T03:26:45;19.00;99.90
43665;DHT22;29263;48.172;11.484;2022-08-05T03:29:11;19.00;99.90
43665;DHT22;29263;48.172;11.484;2022-08-05T03:31:37;19.00;99.90
43665;DHT22;29263;48.172;11.484;2022-08-05T03:34:03;19.00;99.90
43665;DHT22;29263;48.172;11.484;2022-08-05T03:36:30;19.00;99.90
43665;DHT22;29263;48.172;11.484;2022-08-05T03:38:56;19.00;99.90
43665;DHT22;29263;48.172;11.484;2022-08-05T03:41:22;18.90;99.90
43665;DHT22;29263;48.172;11.484;2022-08-05T03:43:47;18.90;99.90
43665;DHT22;29263;48.172;11.484;2022-08-05T03:46:13;18.90;99.90
43665;DHT22;29263;48.172;11.484;2022-08-05T03:48:39;18.90;99.90
43665;DHT22;29263;48.172;11.484;2022-08-05T03:51:14;18.90;99.90
43665;DHT22;29263;48.172;11.484;2022-08-05T03:53:50;18.80;99.90
43665;DHT22;29263;48.172;11.484;2022-08-05T03:56:38;18.80;99.90
43665;DHT22;29263;48.172;11.484;2022-08-05T03:59:15;18.80;99.90
43665;DHT22;29263;48.172;11.484;2022-08-05T04:01:45;18.70;99.90
43665;DHT22;29263;48.172;11.484;2022-08-05T04:04:15;18.70;99.90
43665;DHT22;29263;48.172;11.484;2022-08-05T04:06:41;18.60;99.90
43665;DHT22;29263;48.172;11.484;2022-08-05T04:09:09;18.60;99.90
43665;DHT22;29263;48.172;11.484;2022-08-05T04:11:36;18.60;99.90
43665;DHT22;29263;48.172;11.484;2022-08-05T04:14:03;18.60;99.90
43665;DHT22;29263;48.172;11.484;2022-08-05T04:16:30;18.60;99.90
43665;DHT22;29263;48.172;11.484;2022-08-05T04:18:56;18.60;99.90
43665;DHT22;29263;48.172;11.484;2022-08-05T04:21:23;18.60;99.90
43665;DHT22;29263;48.172;11.484;2022-08-05T04:23:48;18.60;99.90
43665;DHT22;29263;48.172;11.484;2022-08-05T04:26:14;18.60;99.90
43665;DHT22;29263;48.172;11.484;2022-08-05T04:28:40;18.70;99.90
43665;DHT22;29263;48.172;11.484;2022-08-05T04:31:06;18.70;99.90
43665;DHT22;29263;48.172;11.484;2022-08-05T04:33:32;18.70;99.90
43665;DHT22;29263;48.172;11.484;2022-08-05T04:35:59;18.80;99.90
43665;DHT22;29263;48.172;11.484;2022-08-05T04:38:25;18.90;99.90
43665;DHT22;29263;48.172;11.484;2022-08-05T04:40:50;18.90;99.90
43665;DHT22;29263;48.172;11.484;2022-08-05T04:43:16;18.90;99.90
43665;DHT22;29263;48.172;11.484;2022-08-05T04:45:42;19.00;99.90
43665;DHT22;29263;48.172;11.484;2022-08-05T04:51:35;19.10;99.90
43665;DHT22;29263;48.172;11.484;2022-08-05T04:54:01;19.20;99.90
43665;DHT22;29263;48.172;11.484;2022-08-05T04:56:27;19.20;99.90
43665;DHT22;29263;48.172;11.484;2022-08-05T04:58:52;19.30;99.90
43665;DHT22;29263;48.172;11.484;2022-08-05T05:01:18;19.40;99.90
43665;DHT22;29263;48.172;11.484;2022-08-05T05:03:43;19.50;99.90
43665;DHT22;29263;48.172;11.484;2022-08-05T05:06:10;19.60;99.90
43665;DHT22;29263;48.172;11.484;2022-08-05T05:08:36;19.70;99.90
43665;DHT22;29263;48.172;11.484;2022-08-05T05:11:02;19.80;99.90
43665;DHT22;29263;48.172;11.484;2022-08-05T05:13:28;19.90;99.90
43665;DHT22;29263;48.172;11.484;2022-08-05T05:15:53;20.00;99.90
43665;DHT22;29263;48.172;11.484;2022-08-05T05:18:19;20.10;99.90
43665;DHT22;29263;48.172;11.484;2022-08-05T05:20:45;20.20;99.90
43665;DHT22;29263;48.172;11.484;2022-08-05T05:23:12;20.40;99.90
43665;DHT22;29263;48.172;11.484;2022-08-05T05:25:43;20.50;99.90
43665;DHT22;29263;48.172;11.484;2022-08-05T05:28:09;20.70;99.90
43665;DHT22;29263;48.172;11.484;2022-08-05T05:30:36;20.80;99.90
43665;DHT22;29263;48.172;11.484;2022-08-05T05:33:03;21.10;99.90
43665;DHT22;29263;48.172;11.484;2022-08-05T05:35:30;21.30;99.90
43665;DHT22;29263;48.172;11.484;2022-08-05T05:37:57;21.40;99.90
43665;DHT22;29263;48.172;11.484;2022-08-05T05:40:28;21.60;99.90
43665;DHT22;29263;48.172;11.484;2022-08-05T05:42:54;21.80;99.90
43665;DHT22;29263;48.172;11.484;2022-08-05T05:45:20;22.00;99.90
43665;DHT22;29263;48.172;11.484;2022-08-05T05:47:46;22.30;99.90
43665;DHT22;29263;48.172;11.484;2022-08-05T05:50:14;22.50;99.90
43665;DHT22;29263;48.172;11.484;2022-08-05T05:52:41;22.80;99.90
43665;DHT22;29263;48.172;11.484;2022-08-05T05:55:09;23.10;99.90
43665;DHT22;29263;48.172;11.484;2022-08-05T05:57:36;23.40;99.90
43665;DHT22;29263;48.172;11.484;2022-08-05T06:00:05;23.50;99.90
43665;DHT22;29263;48.172;11.484;2022-08-05T06:02:30;23.60;99.90
43665;DHT22;29263;48.172;11.484;2022-08-05T06:04:56;23.70;99.90
43665;DHT22;29263;48.172;11.484;2022-08-05T06:07:22;23.60;99.90
43665;DHT22;29263;48.172;11.484;2022-08-05T06:09:47;23.60;99.90
43665;DHT22;29263;48.172;11.484;2022-08-05T06:12:13;23.70;99.90
43665;DHT22;29263;48.172;11.484;2022-08-05T06:14:39;23.60;99.90
43665;DHT22;29263;48.172;11.484;2022-08-05T06:17:06;23.60;99.90
43665;DHT22;29263;48.172;11.484;2022-08-05T06:19:32;23.70;99.90
43665;DHT22;29263;48.172;11.484;2022-08-05T06:21:57;24.00;99.90
43665;DHT22;29263;48.172;11.484;2022-08-05T06:24:23;24.20;99.90
43665;DHT22;29263;48.172;11.484;2022-08-05T06:26:49;24.50;99.90
43665;DHT22;29263;48.172;11.484;2022-08-05T06:29:14;24.70;99.90
43665;DHT22;29263;48.172;11.484;2022-08-05T06:31:40;24.90;99.50
43665;DHT22;29263;48.172;11.484;2022-08-05T06:34:05;25.10;99.60
43665;DHT22;29263;48.172;11.484;2022-08-05T06:36:32;25.20;97.10
43665;DHT22;29263;48.172;11.484;2022-08-05T06:39:04;25.50;94.90
43665;DHT22;29263;48.172;11.484;2022-08-05T06:41:37;25.60;94.40
43665;DHT22;29263;48.172;11.484;2022-08-05T06:44:04;25.80;92.80
43665;DHT22;29263;48.172;11.484;2022-08-05T06:46:30;26.00;92.20
43665;DHT22;29263;48.172;11.484;2022-08-05T06:48:55;26.10;90.70
43665;DHT22;29263;48.172;11.484;2022-08-05T06:51:21;26.30;90.00
43665;DHT22;29263;48.172;11.484;2022-08-05T06:53:47;26.40;88.10
43665;DHT22;29263;48.172;11.484;2022-08-05T06:56:13;26.70;89.90
43665;DHT22;29263;48.172;11.484;2022-08-05T06:58:38;26.70;85.50
43665;DHT22;29263;48.172;11.484;2022-08-05T07:01:05;26.60;82.70
43665;DHT22;29263;48.172;11.484;2022-08-05T07:03:31;26.50;81.80
43665;DHT22;29263;48.172;11.484;2022-08-05T07:05:57;26.30;81.10
43665;DHT22;29263;48.172;11.484;2022-08-05T07:08:23;26.30;84.10
43665;DHT22;29263;48.172;11.484;2022-08-05T07:10:50;26.20;83.40
43665;DHT22;29263;48.172;11.484;2022-08-05T07:13:16;26.30;81.30
43665;DHT22;29263;48.172;11.484;2022-08-05T07:16:00;26.10;83.50
43665;DHT22;29263;48.172;11.484;2022-08-05T07:18:44;26.10;84.50
43665;DHT22;29263;48.172;11.484;2022-08-05T07:21:10;25.90;83.20
43665;DHT22;29263;48.172;11.484;2022-08-05T07:23:36;25.90;82.60
43665;DHT22;29263;48.172;11.484;2022-08-05T07:26:02;25.80;83.50
43665;DHT22;29263;48.172;11.484;2022-08-05T07:28:28;25.80;84.90
43665;DHT22;29263;48.172;11.484;2022-08-05T07:30:54;25.70;85.00
43665;DHT22;29263;48.172;11.484;2022-08-05T07:33:20;25.70;83.60
43665;DHT22;29263;48.172;11.484;2022-08-05T07:36:00;25.90;83.80
43665;DHT22;29263;48.172;11.484;2022-08-05T07:39:05;26.00;85.40
43665;DHT22;29263;48.172;11.484;2022-08-05T07:41:30;26.20;83.80
43665;DHT22;29263;48.172;11.484;2022-08-05T07:44:08;26.20;79.60
43665;DHT22;29263;48.172;11.484;2022-08-05T07:46:34;26.30;79.60
43665;DHT22;29263;48.172;11.484;2022-08-05T07:49:01;26.40;78.80
43665;DHT22;29263;48.172;11.484;2022-08-05T07:51:27;26.50;77.80
43665;DHT22;29263;48.172;11.484;2022-08-05T07:53:54;26.40;76.60
43665;DHT22;29263;48.172;11.484;2022-08-05T07:59:49;26.70;77.30
43665;DHT22;29263;48.172;11.484;2022-08-05T08:02:15;26.90;74.00
43665;DHT22;29263;48.172;11.484;2022-08-05T08:04:41;27.00;73.50
43665;DHT22;29263;48.172;11.484;2022-08-05T08:07:08;27.10;75.00
43665;DHT22;29263;48.172;11.484;2022-08-05T08:09:34;27.20;72.10
43665;DHT22;29263;48.172;11.484;2022-08-05T08:12:00;27.20;69.80
43665;DHT22;29263;48.172;11.484;2022-08-05T08:14:25;27.20;70.30
43665;DHT22;29263;48.172;11.484;2022-08-05T08:16:52;27.20;70.60
43665;DHT22;29263;48.172;11.484;2022-08-05T08:19:18;27.30;69.30
43665;DHT22;29263;48.172;11.484;2022-08-05T08:21:45;27.40;68.50
43665;DHT22;29263;48.172;11.484;2022-08-05T08:24:10;27.40;70.10
43665;DHT22;29263;48.172;11.484;2022-08-05T08:26:36;27.40;68.50
43665;DHT22;29263;48.172;11.484;2022-08-05T08:29:02;27.30;69.80
43665;DHT22;29263;48.172;11.484;2022-08-05T08:31:27;27.40;70.00
43665;DHT22;29263;48.172;11.484;2022-08-05T08:33:53;27.50;69.00
43665;DHT22;29263;48.172;11.484;2022-08-05T08:36:19;27.40;68.10
43665;DHT22;29263;48.172;11.484;2022-08-05T08:38:44;27.40;68.20
43665;DHT22;29263;48.172;11.484;2022-08-05T08:41:13;27.40;69.40
43665;DHT22;29263;48.172;11.484;2022-08-05T08:43:40;27.40;68.80
43665;DHT22;29263;48.172;11.484;2022-08-05T08:46:08;27.30;68.20
43665;DHT22;29263;48.172;11.484;2022-08-05T08:48:45;27.10;68.00
43665;DHT22;29263;48.172;11.484;2022-08-05T08:51:12;27.00;69.80
43665;DHT22;29263;48.172;11.484;2022-08-05T08:53:38;27.10;69.30
43665;DHT22;29263;48.172;11.484;2022-08-05T08:56:05;27.10;70.30
43665;DHT22;29263;48.172;11.484;2022-08-05T08:58:31;26.90;69.20
43665;DHT22;29263;48.172;11.484;2022-08-05T09:00:57;26.90;70.40
43665;DHT22;29263;48.172;11.484;2022-08-05T09:03:23;27.00;71.20
43665;DHT22;29263;48.172;11.484;2022-08-05T09:05:49;27.10;69.60
43665;DHT22;29263;48.172;11.484;2022-08-05T09:08:14;27.30;70.40
43665;DHT22;29263;48.172;11.484;2022-08-05T09:10:42;27.40;70.00
43665;DHT22;29263;48.172;11.484;2022-08-05T09:13:13;27.50;69.10
43665;DHT22;29263;48.172;11.484;2022-08-05T09:15:39;27.80;69.50
43665;DHT22;29263;48.172;11.484;2022-08-05T09:18:08;27.80;67.10
43665;DHT22;29263;48.172;11.484;2022-08-05T09:20:39;27.90;66.60
43665;DHT22;29263;48.172;11.484;2022-08-05T09:25:37;28.00;67.10
43665;DHT22;29263;48.172;11.484;2022-08-05T09:28:18;28.20;66.70
43665;DHT22;29263;48.172;11.484;2022-08-05T09:30:55;28.40;65.80
43665;DHT22;29263;48.172;11.484;2022-08-05T09:33:22;28.30;64.90
43665;DHT22;29263;48.172;11.484;2022-08-05T09:35:59;28.20;66.50
43665;DHT22;29263;48.172;11.484;2022-08-05T09:39:02;28.30;64.50
43665;DHT22;29263;48.172;11.484;2022-08-05T09:41:28;28.30;64.30
43665;DHT22;29263;48.172;11.484;2022-08-05T09:43:54;28.60;63.60
43665;DHT22;29263;48.172;11.484;2022-08-05T09:46:36;28.80;63.60
43665;DHT22;29263;48.172;11.484;2022-08-05T09:49:02;29.00;63.10
43665;DHT22;29263;48.172;11.484;2022-08-05T09:51:38;29.00;62.00
43665;DHT22;29263;48.172;11.484;2022-08-05T09:54:06;29.10;62.30
43665;DHT22;29263;48.172;11.484;2022-08-05T09:56:37;29.10;61.40
43665;DHT22;29263;48.172;11.484;2022-08-05T09:59:05;29.00;61.10
43665;DHT22;29263;48.172;11.484;2022-08-05T10:01:32;29.20;60.40
43665;DHT22;29263;48.172;11.484;2022-08-05T10:04:19;29.40;60.60
43665;DHT22;29263;48.172;11.484;2022-08-05T10:06:54;29.30;62.50
43665;DHT22;29263;48.172;11.484;2022-08-05T10:09:21;29.20;59.10
43665;DHT22;29263;48.172;11.484;2022-08-05T10:11:48;29.00;59.10
43665;DHT22;29263;48.172;11.484;2022-08-05T10:14:25;29.20;61.40
43665;DHT22;29263;48.172;11.484;2022-08-05T10:16:52;29.40;60.10
43665;DHT22;29263;48.172;11.484;2022-08-05T10:19:25;29.60;58.10
43665;DHT22;29263;48.172;11.484;2022-08-05T10:21:51;29.70;57.90
43665;DHT22;29263;48.172;11.484;2022-08-05T10:24:18;29.60;59.00
43665;DHT22;29263;48.172;11.484;2022-08-05T10:26:46;29.40;57.90
43665;DHT22;29263;48.172;11.484;2022-08-05T10:29:12;29.40;57.60
43665;DHT22;29263;48.172;11.484;2022-08-05T10:31:39;29.30;57.80
43665;DHT22;29263;48.172;11.484;2022-08-05T10:34:09;29.30;58.30
43665;DHT22;29263;48.172;11.484;2022-08-05T10:36:36;29.40;58.70
43665;DHT22;29263;48.172;11.484;2022-08-05T10:39:13;29.50;60.50
43665;DHT22;29263;48.172;11.484;2022-08-05T10:41:44;29.70;57.30
43665;DHT22;29263;48.172;11.484;2022-08-05T10:44:22;30.40;56.50
43665;DHT22;29263;48.172;11.484;2022-08-05T10:46:56;32.50;53.40
43665;DHT22;29263;48.172;11.484;2022-08-05T10:49:23;34.40;48.80
43665;DHT22;29263;48.172;11.484;2022-08-05T10:51:52;36.10;45.80
43665;DHT22;29263;48.172;11.484;2022-08-05T10:55:03;37.00;42.90
43665;DHT22;29263;48.172;11.484;2022-08-05T10:57:29;37.30;41.00
43665;DHT22;29263;48.172;11.484;2022-08-05T11:00:18;38.00;41.00
43665;DHT22;29263;48.172;11.484;2022-08-05T11:05:23;39.00;38.90
43665;DHT22;29263;48.172;11.484;2022-08-05T11:08:04;39.40;37.90
43665;DHT22;29263;48.172;11.484;2022-08-05T11:10:31;40.30;37.30
43665;DHT22;29263;48.172;11.484;2022-08-05T11:12:58;39.30;37.20
43665;DHT22;29263;48.172;11.484;2022-08-05T11:15:31;38.50;39.10
43665;DHT22;29263;48.172;11.484;2022-08-05T11:18:28;39.00;36.90
43665;DHT22;29263;48.172;11.484;2022-08-05T11:20:54;39.90;35.90
43665;DHT22;29263;48.172;11.484;2022-08-05T11:23:51;39.50;36.50
43665;DHT22;29263;48.172;11.484;2022-08-05T11:26:35;38.50;37.80
43665;DHT22;29263;48.172;11.484;2022-08-05T11:29:03;39.30;35.80
43665;DHT22;29263;48.172;11.484;2022-08-05T11:31:30;38.80;35.80
43665;DHT22;29263;48.172;11.484;2022-08-05T11:33:57;39.20;36.10
43665;DHT22;29263;48.172;11.484;2022-08-05T11:36:48;39.40;35.50
43665;DHT22;29263;48.172;11.484;2022-08-05T11:39:45;39.90;36.00
43665;DHT22;29263;48.172;11.484;2022-08-05T11:42:02;38.90;35.80
43665;DHT22;29263;48.172;11.484;2022-08-05T11:44:36;37.60;37.90
43665;DHT22;29263;48.172;11.484;2022-08-05T11:47:03;38.40;36.60
43665;DHT22;29263;48.172;11.484;2022-08-05T11:49:28;38.00;36.50
43665;DHT22;29263;48.172;11.484;2022-08-05T11:51:54;37.10;38.10
43665;DHT22;29263;48.172;11.484;2022-08-05T11:54:23;34.80;41.40
43665;DHT22;29263;48.172;11.484;2022-08-05T11:56:52;33.90;42.60
43665;DHT22;29263;48.172;11.484;2022-08-05T11:59:20;33.30;44.10
43665;DHT22;29263;48.172;11.484;2022-08-05T12:04:18;32.40;44.40
43665;DHT22;29263;48.172;11.484;2022-08-05T12:06:44;31.70;46.00
43665;DHT22;29263;48.172;11.484;2022-08-05T12:09:10;31.90;46.60
43665;DHT22;29263;48.172;11.484;2022-08-05T12:11:36;31.50;47.30
43665;DHT22;29263;48.172;11.484;2022-08-05T12:14:06;31.20;47.10
43665;DHT22;29263;48.172;11.484;2022-08-05T12:16:44;31.00;48.70
43665;DHT22;29263;48.172;11.484;2022-08-05T12:19:14;30.80;49.40
43665;DHT22;29263;48.172;11.484;2022-08-05T12:21:49;30.50;51.20
43665;DHT22;29263;48.172;11.484;2022-08-05T12:24:19;30.70;49.20
43665;DHT22;29263;48.172;11.484;2022-08-05T12:26:50;30.90;49.90
43665;DHT22;29263;48.172;11.484;2022-08-05T12:31:53;31.20;48.40
43665;DHT22;29263;48.172;11.484;2022-08-05T12:34:21;31.10;50.00
43665;DHT22;29263;48.172;11.484;2022-08-05T12:36:49;31.30;48.40
43665;DHT22;29263;48.172;11.484;2022-08-05T12:39:16;31.50;49.90
43665;DHT22;29263;48.172;11.484;2022-08-05T12:41:44;31.60;48.80
43665;DHT22;29263;48.172;11.484;2022-08-05T12:44:12;31.50;47.90
43665;DHT22;29263;48.172;11.484;2022-08-05T12:46:39;31.60;47.90
43665;DHT22;29263;48.172;11.484;2022-08-05T12:49:08;32.20;48.90
43665;DHT22;29263;48.172;11.484;2022-08-05T12:51:55;32.60;46.00
43665;DHT22;29263;48.172;11.484;2022-08-05T12:54:25;32.20;46.00
43665;DHT22;29263;48.172;11.484;2022-08-05T12:56:53;32.20;47.00
43665;DHT22;29263;48.172;11.484;2022-08-05T12:59:24;31.80;46.00
43665;DHT22;29263;48.172;11.484;2022-08-05T13:02:01;31.50;47.90
43665;DHT22;29263;48.172;11.484;2022-08-05T13:04:28;31.50;48.80
43665;DHT22;29263;48.172;11.484;2022-08-05T13:06:59;31.20;48.30
43665;DHT22;29263;48.172;11.484;2022-08-05T13:09:27;31.40;48.50
43665;DHT22;29263;48.172;11.484;2022-08-05T13:12:13;31.40;48.90
43665;DHT22;29263;48.172;11.484;2022-08-05T13:14:46;31.50;49.10
43665;DHT22;29263;48.172;11.484;2022-08-05T13:17:16;31.40;50.40
43665;DHT22;29263;48.172;11.484;2022-08-05T13:22:52;31.70;49.60
43665;DHT22;29263;48.172;11.484;2022-08-05T13:25:19;31.60;49.70
43665;DHT22;29263;48.172;11.484;2022-08-05T13:27:51;31.50;48.40
43665;DHT22;29263;48.172;11.484;2022-08-05T13:30:19;31.20;49.60
43665;DHT22;29263;48.172;11.484;2022-08-05T13:32:46;31.00;49.90
43665;DHT22;29263;48.172;11.484;2022-08-05T13:35:13;30.80;49.90
43665;DHT22;29263;48.172;11.484;2022-08-05T13:37:40;30.60;50.50
43665;DHT22;29263;48.172;11.484;2022-08-05T13:40:07;30.60;50.00
43665;DHT22;29263;48.172;11.484;2022-08-05T13:42:33;30.80;52.10
43665;DHT22;29263;48.172;11.484;2022-08-05T13:44:59;31.00;48.90
43665;DHT22;29263;48.172;11.484;2022-08-05T13:47:25;31.10;50.00
43665;DHT22;29263;48.172;11.484;2022-08-05T13:49:51;31.30;49.00
43665;DHT22;29263;48.172;11.484;2022-08-05T13:52:22;31.40;48.00
43665;DHT22;29263;48.172;11.484;2022-08-05T13:54:50;31.10;48.30
43665;DHT22;29263;48.172;11.484;2022-08-05T13:57:16;31.20;49.20
43665;DHT22;29263;48.172;11.484;2022-08-05T13:59:43;31.40;47.70
43665;DHT22;29263;48.172;11.484;2022-08-05T14:02:10;31.30;48.40
43665;DHT22;29263;48.172;11.484;2022-08-05T14:04:41;31.40;49.30
43665;DHT22;29263;48.172;11.484;2022-08-05T14:07:33;31.50;48.20
43665;DHT22;29263;48.172;11.484;2022-08-05T14:09:59;31.40;48.80
43665;DHT22;29263;48.172;11.484;2022-08-05T14:12:25;31.20;47.90
43665;DHT22;29263;48.172;11.484;2022-08-05T14:14:51;31.30;48.50
43665;DHT22;29263;48.172;11.484;2022-08-05T14:17:17;31.30;48.30
43665;DHT22;29263;48.172;11.484;2022-08-05T14:19:43;31.40;47.90
43665;DHT22;29263;48.172;11.484;2022-08-05T14:22:10;31.40;47.80
43665;DHT22;29263;48.172;11.484;2022-08-05T14:24:36;31.40;49.30
43665;DHT22;29263;48.172;11.484;2022-08-05T14:27:04;31.30;48.20
43665;DHT22;29263;48.172;11.484;2022-08-05T14:29:30;31.30;47.80
43665;DHT22;29263;48.172;11.484;2022-08-05T14:31:56;31.40;47.20
43665;DHT22;29263;48.172;11.484;2022-08-05T14:34:21;31.40;47.50
43665;DHT22;29263;48.172;11.484;2022-08-05T14:36:47;31.30;48.50
43665;DHT22;29263;48.172;11.484;2022-08-05T14:39:13;31.20;47.50
43665;DHT22;29263;48.172;11.484;2022-08-05T14:41:38;31.10;48.90
43665;DHT22;29263;48.172;11.484;2022-08-05T14:44:04;31.00;48.10
43665;DHT22;29263;48.172;11.484;2022-08-05T14:46:31;31.00;48.20
43665;DHT22;29263;48.172;11.484;2022-08-05T14:48:58;31.00;48.20
43665;DHT22;29263;48.172;11.484;2022-08-05T14:51:24;31.00;48.10
43665;DHT22;29263;48.172;11.484;2022-08-05T14:53:50;31.00;47.80
43665;DHT22;29263;48.172;11.484;2022-08-05T14:56:16;31.00;48.30
43665;DHT22;29263;48.172;11.484;2022-08-05T14:58:41;31.00;49.10
43665;DHT22;29263;48.172;11.484;2022-08-05T15:01:07;31.10;48.90
43665;DHT22;29263;48.172;11.484;2022-08-05T15:03:33;31.10;47.30
43665;DHT22;29263;48.172;11.484;2022-08-05T15:05:59;31.10;48.10
43665;DHT22;29263;48.172;11.484;2022-08-05T15:08:25;31.10;49.10
43665;DHT22;29263;48.172;11.484;2022-08-05T15:10:51;31.10;50.40
43665;DHT22;29263;48.172;11.484;2022-08-05T15:13:16;30.90;49.50
43665;DHT22;29263;48.172;11.484;2022-08-05T15:15:42;30.90;48.90
43665;DHT22;29263;48.172;11.484;2022-08-05T15:18:08;31.00;48.80
43665;DHT22;29263;48.172;11.484;2022-08-05T15:20:33;30.90;49.90
43665;DHT22;29263;48.172;11.484;2022-08-05T15:23:07;30.90;48.10
43665;DHT22;29263;48.172;11.484;2022-08-05T15:25:33;31.00;48.40
43665;DHT22;29263;48.172;11.484;2022-08-05T15:28:00;31.00;48.40
43665;DHT22;29263;48.172;11.484;2022-08-05T15:30:26;31.00;48.50
43665;DHT22;29263;48.172;11.484;2022-08-05T15:32:53;31.10;48.40
43665;DHT22;29263;48.172;11.484;2022-08-05T15:35:20;30.90;50.20
43665;DHT22;29263;48.172;11.484;2022-08-05T15:37:46;31.00;48.80
43665;DHT22;29263;48.172;11.484;2022-08-05T15:40:12;31.10;48.20
43665;DHT22;29263;48.172;11.484;2022-08-05T15:42:37;31.00;48.70
43665;DHT22;29263;48.172;11.484;2022-08-05T15:45:03;31.00;48.80
43665;DHT22;29263;48.172;11.484;2022-08-05T15:47:29;30.80;50.30
43665;DHT22;29263;48.172;11.484;2022-08-05T15:49:55;30.70;50.00
43665;DHT22;29263;48.172;11.484;2022-08-05T15:52:21;30.50;50.40
43665;DHT22;29263;48.172;11.484;2022-08-05T15:54:48;30.40;49.70
43665;DHT22;29263;48.172;11.484;2022-08-05T15:57:14;30.30;50.00
43665;DHT22;29263;48.172;11.484;2022-08-05T15:59:40;30.20;51.60
43665;DHT22;29263;48.172;11.484;2022-08-05T16:02:08;30.10;52.80
43665;DHT22;29263;48.172;11.484;2022-08-05T16:04:34;30.00;53.00
43665;DHT22;29263;48.172;11.484;2022-08-05T16:07:00;30.00;51.30
43665;DHT22;29263;48.172;11.484;2022-08-05T16:09:25;30.10;49.80